sensor_id;sensor_type;location;lat;lon;timestamp;P1;durP1;ratioP1;P2;durP2;ratioP2
77018;SDS011;66044;53.142;17.962;2023-05-14T00:01:13;21.80;;;9.70;;
77018;SDS011;66044;53.142;17.962;2023-05-14T00:03:39;17.50;;;9.80;;
77018;SDS011;66044;53.142;17.962;2023-05-14T00:06:06;20.00;;;9.00;;
77018;SDS011;66044;53.142;17.962;2023-05-14T00:08:33;17.90;;;9.10;;
77018;SDS011;66044;53.142;17.962;2023-05-14T00:10:59;18.70;;;9.50;;
77018;SDS011;66044;53.142;17.962;2023-05-14T00:13:26;16.30;;;9.60;;
77018;SDS011;66044;53.142;17.962;2023-05-14T00:15:52;17.00;;;8.80;;
77018;SDS011;66044;53.142;17.962;2023-05-14T00:18:18;17.60;;;9.50;;
77018;SDS011;66044;53.142;17.962;2023-05-14T00:20:45;16.10;;;9.80;;
77018;SDS011;66044;53.142;17.962;2023-05-14T00:23:11;16.60;;;9.20;;
77018;SDS011;66044;53.142;17.962;2023-05-14T00:25:38;16.00;;;9.30;;
77018;SDS011;66044;53.142;17.962;2023-05-14T00:28:05;17.10;;;9.80;;
77018;SDS011;66044;53.142;17.962;2023-05-14T00:30:31;15.50;;;9.40;;
77018;SDS011;66044;53.142;17.962;2023-05-14T00:32:57;17.60;;;8.50;;
77018;SDS011;66044;53.142;17.962;2023-05-14T00:35:24;17.30;;;7.80;;
77018;SDS011;66044;53.142;17.962;2023-05-14T00:37:50;14.50;;;7.80;;
77018;SDS011;66044;53.142;17.962;2023-05-14T00:40:17;17.10;;;7.70;;
77018;SDS011;66044;53.142;17.962;2023-05-14T00:42:43;12.60;;;6.30;;
77018;SDS011;66044;53.142;17.962;2023-05-14T00:45:10;14.30;;;6.90;;
77018;SDS011;66044;53.142;17.962;2023-05-14T00:47:36;15.10;;;7.70;;
77018;SDS011;66044;53.142;17.962;2023-05-14T00:50:04;14.80;;;8.30;;
77018;SDS011;66044;53.142;17.962;2023-05-14T00:52:31;15.50;;;8.20;;
77018;SDS011;66044;53.142;17.962;2023-05-14T00:54:58;15.10;;;8.80;;
77018;SDS011;66044;53.142;17.962;2023-05-14T00:57:27;16.60;;;8.70;;
77018;SDS011;66044;53.142;17.962;2023-05-14T00:59:53;16.50;;;8.60;;
77018;SDS011;66044;53.142;17.962;2023-05-14T01:02:20;15.60;;;8.80;;
77018;SDS011;66044;53.142;17.962;2023-05-14T01:04:47;13.70;;;8.60;;
77018;SDS011;66044;53.142;17.962;2023-05-14T01:07:20;19.00;;;9.30;;
77018;SDS011;66044;53.142;17.962;2023-05-14T01:10:10;13.90;;;8.70;;
77018;SDS011;66044;53.142;17.962;2023-05-14T01:12:46;12.70;;;7.20;;
77018;SDS011;66044;53.142;17.962;2023-05-14T01:15:18;14.90;;;8.10;;
77018;SDS011;66044;53.142;17.962;2023-05-14T01:18:00;12.60;;;7.00;;
77018;SDS011;66044;53.142;17.962;2023-05-14T01:20:29;10.90;;;6.20;;
77018;SDS011;66044;53.142;17.962;2023-05-14T01:22:56;12.60;;;6.80;;
77018;SDS011;66044;53.142;17.962;2023-05-14T01:25:22;10.90;;;6.90;;
77018;SDS011;66044;53.142;17.962;2023-05-14T01:33:19;12.10;;;7.70;;
77018;SDS011;66044;53.142;17.962;2023-05-14T01:35:47;12.90;;;8.10;;
77018;SDS011;66044;53.142;17.962;2023-05-14T01:38:15;17.00;;;7.60;;
77018;SDS011;66044;53.142;17.962;2023-05-14T01:40:44;15.70;;;8.40;;
77018;SDS011;66044;53.142;17.962;2023-05-14T01:43:11;16.10;;;9.10;;
77018;SDS011;66044;53.142;17.962;2023-05-14T01:45:38;16.40;;;9.30;;
77018;SDS011;66044;53.142;17.962;2023-05-14T01:48:05;18.10;;;9.60;;
77018;SDS011;66044;53.142;17.962;2023-05-14T01:50:31;14.40;;;9.00;;
77018;SDS011;66044;53.142;17.962;2023-05-14T01:52:58;12.40;;;8.10;;
77018;SDS011;66044;53.142;17.962;2023-05-14T01:55:24;12.80;;;7.80;;
77018;SDS011;66044;53.142;17.962;2023-05-14T01:57:51;12.50;;;7.20;;
77018;SDS011;66044;53.142;17.962;2023-05-14T02:00:18;14.20;;;7.80;;
77018;SDS011;66044;53.142;17.962;2023-05-14T02:02:45;12.80;;;7.20;;
77018;SDS011;66044;53.142;17.962;2023-05-14T02:05:12;14.00;;;7.80;;
77018;SDS011;66044;53.142;17.962;2023-05-14T02:07:38;16.10;;;8.50;;
77018;SDS011;66044;53.142;17.962;2023-05-14T02:10:05;13.20;;;8.40;;
77018;SDS011;66044;53.142;17.962;2023-05-14T02:12:32;14.40;;;8.10;;
77018;SDS011;66044;53.142;17.962;2023-05-14T02:14:59;15.00;;;8.20;;
77018;SDS011;66044;53.142;17.962;2023-05-14T02:17:25;14.20;;;8.20;;
77018;SDS011;66044;53.142;17.962;2023-05-14T02:19:52;14.40;;;8.50;;
77018;SDS011;66044;53.142;17.962;2023-05-14T02:22:18;17.80;;;8.30;;
77018;SDS011;66044;53.142;17.962;2023-05-14T02:24:45;15.20;;;9.10;;
77018;SDS011;66044;53.142;17.962;2023-05-14T02:27:11;16.00;;;9.60;;
77018;SDS011;66044;53.142;17.962;2023-05-14T02:29:38;16.20;;;8.00;;
77018;SDS011;66044;53.142;17.962;2023-05-14T02:32:04;14.60;;;8.50;;
77018;SDS011;66044;53.142;17.962;2023-05-14T02:34:31;13.90;;;8.30;;
77018;SDS011;66044;53.142;17.962;2023-05-14T02:36:59;17.00;;;10.00;;
77018;SDS011;66044;53.142;17.962;2023-05-14T02:39:26;14.10;;;9.00;;
77018;SDS011;66044;53.142;17.962;2023-05-14T02:41:52;13.20;;;8.00;;
77018;SDS011;66044;53.142;17.962;2023-05-14T02:44:19;14.40;;;8.00;;
77018;SDS011;66044;53.142;17.962;2023-05-14T02:46:45;11.90;;;7.20;;
77018;SDS011;66044;53.142;17.962;2023-05-14T02:49:11;17.30;;;9.20;;
77018;SDS011;66044;53.142;17.962;2023-05-14T02:51:38;16.90;;;7.70;;
77018;SDS011;66044;53.142;17.962;2023-05-14T02:54:05;13.80;;;7.80;;
77018;SDS011;66044;53.142;17.962;2023-05-14T02:56:31;15.20;;;8.60;;
77018;SDS011;66044;53.142;17.962;2023-05-14T02:58:57;17.40;;;8.60;;
77018;SDS011;66044;53.142;17.962;2023-05-14T03:01:24;20.60;;;8.90;;
77018;SDS011;66044;53.142;17.962;2023-05-14T03:03:50;13.90;;;8.20;;
77018;SDS011;66044;53.142;17.962;2023-05-14T03:06:17;12.20;;;7.20;;
77018;SDS011;66044;53.142;17.962;2023-05-14T03:08:43;13.60;;;8.20;;
77018;SDS011;66044;53.142;17.962;2023-05-14T03:11:10;15.20;;;8.90;;
77018;SDS011;66044;53.142;17.962;2023-05-14T03:13:37;15.00;;;8.20;;
77018;SDS011;66044;53.142;17.962;2023-05-14T03:16:03;14.00;;;7.80;;
77018;SDS011;66044;53.142;17.962;2023-05-14T03:18:30;11.70;;;7.20;;
77018;SDS011;66044;53.142;17.962;2023-05-14T03:20:58;12.30;;;7.30;;
77018;SDS011;66044;53.142;17.962;2023-05-14T03:23:24;12.30;;;6.90;;
77018;SDS011;66044;53.142;17.962;2023-05-14T03:25:51;12.70;;;7.90;;
77018;SDS011;66044;53.142;17.962;2023-05-14T03:28:17;13.00;;;7.50;;
77018;SDS011;66044;53.142;17.962;2023-05-14T03:30:44;13.50;;;7.50;;
77018;SDS011;66044;53.142;17.962;2023-05-14T03:33:10;12.50;;;7.80;;
77018;SDS011;66044;53.142;17.962;2023-05-14T03:35:37;13.30;;;7.20;;
77018;SDS011;66044;53.142;17.962;2023-05-14T03:38:04;11.70;;;7.60;;
77018;SDS011;66044;53.142;17.962;2023-05-14T03:40:31;15.20;;;7.30;;
77018;SDS011;66044;53.142;17.962;2023-05-14T03:42:57;12.60;;;8.80;;
77018;SDS011;66044;53.142;17.962;2023-05-14T03:45:23;13.70;;;8.20;;
77018;SDS011;66044;53.142;17.962;2023-05-14T03:47:51;12.40;;;8.10;;
77018;SDS011;66044;53.142;17.962;2023-05-14T03:50:18;14.80;;;8.20;;
77018;SDS011;66044;53.142;17.962;2023-05-14T03:52:44;13.00;;;8.30;;
77018;SDS011;66044;53.142;17.962;2023-05-14T03:55:11;15.30;;;8.70;;
77018;SDS011;66044;53.142;17.962;2023-05-14T03:57:37;16.70;;;8.60;;
77018;SDS011;66044;53.142;17.962;2023-05-14T04:00:04;12.90;;;7.20;;
77018;SDS011;66044;53.142;17.962;2023-05-14T04:02:31;13.00;;;7.90;;
77018;SDS011;66044;53.142;17.962;2023-05-14T04:04:57;14.20;;;8.30;;
77018;SDS011;66044;53.142;17.962;2023-05-14T04:07:23;14.00;;;7.90;;
77018;SDS011;66044;53.142;17.962;2023-05-14T04:09:50;14.20;;;8.30;;
77018;SDS011;66044;53.142;17.962;2023-05-14T04:12:17;13.50;;;7.80;;
77018;SDS011;66044;53.142;17.962;2023-05-14T04:14:43;14.10;;;7.50;;
77018;SDS011;66044;53.142;17.962;2023-05-14T04:17:09;13.70;;;8.00;;
77018;SDS011;66044;53.142;17.962;2023-05-14T04:19:36;12.70;;;7.30;;
77018;SDS011;66044;53.142;17.962;2023-05-14T04:22:02;13.10;;;8.10;;
77018;SDS011;66044;53.142;17.962;2023-05-14T04:24:29;13.80;;;8.00;;
77018;SDS011;66044;53.142;17.962;2023-05-14T04:26:55;15.60;;;8.20;;
77018;SDS011;66044;53.142;17.962;2023-05-14T04:29:22;15.70;;;8.10;;
77018;SDS011;66044;53.142;17.962;2023-05-14T04:31:48;13.50;;;8.10;;
77018;SDS011;66044;53.142;17.962;2023-05-14T04:34:15;14.60;;;8.00;;
77018;SDS011;66044;53.142;17.962;2023-05-14T04:36:41;15.90;;;8.30;;
77018;SDS011;66044;53.142;17.962;2023-05-14T04:39:07;12.00;;;7.20;;
77018;SDS011;66044;53.142;17.962;2023-05-14T04:41:37;15.70;;;8.10;;
77018;SDS011;66044;53.142;17.962;2023-05-14T04:44:04;12.20;;;7.60;;
77018;SDS011;66044;53.142;17.962;2023-05-14T04:46:30;16.00;;;8.20;;
77018;SDS011;66044;53.142;17.962;2023-05-14T04:48:57;14.60;;;7.50;;
77018;SDS011;66044;53.142;17.962;2023-05-14T04:51:23;10.40;;;6.70;;
77018;SDS011;66044;53.142;17.962;2023-05-14T04:53:49;11.00;;;6.90;;
77018;SDS011;66044;53.142;17.962;2023-05-14T04:56:16;10.60;;;6.50;;
77018;SDS011;66044;53.142;17.962;2023-05-14T04:58:42;12.60;;;6.60;;
77018;SDS011;66044;53.142;17.962;2023-05-14T05:01:09;10.30;;;6.00;;
77018;SDS011;66044;53.142;17.962;2023-05-14T05:03:35;13.50;;;6.20;;
77018;SDS011;66044;53.142;17.962;2023-05-14T05:06:02;9.20;;;5.30;;
77018;SDS011;66044;53.142;17.962;2023-05-14T05:08:29;11.40;;;6.00;;
77018;SDS011;66044;53.142;17.962;2023-05-14T05:10:55;10.80;;;5.10;;
77018;SDS011;66044;53.142;17.962;2023-05-14T05:13:22;11.90;;;5.30;;
77018;SDS011;66044;53.142;17.962;2023-05-14T05:15:48;11.00;;;5.20;;
77018;SDS011;66044;53.142;17.962;2023-05-14T05:18:15;8.40;;;4.70;;
77018;SDS011;66044;53.142;17.962;2023-05-14T05:20:41;10.00;;;5.30;;
77018;SDS011;66044;53.142;17.962;2023-05-14T05:23:08;8.40;;;4.90;;
77018;SDS011;66044;53.142;17.962;2023-05-14T05:25:34;9.00;;;5.30;;
77018;SDS011;66044;53.142;17.962;2023-05-14T05:28:01;8.80;;;5.10;;
77018;SDS011;66044;53.142;17.962;2023-05-14T05:30:27;9.50;;;5.60;;
77018;SDS011;66044;53.142;17.962;2023-05-14T05:32:55;8.20;;;4.70;;
77018;SDS011;66044;53.142;17.962;2023-05-14T05:35:22;8.80;;;4.50;;
77018;SDS011;66044;53.142;17.962;2023-05-14T05:37:49;7.80;;;4.00;;
77018;SDS011;66044;53.142;17.962;2023-05-14T05:40:15;7.60;;;4.20;;
77018;SDS011;66044;53.142;17.962;2023-05-14T05:42:42;8.00;;;4.10;;
77018;SDS011;66044;53.142;17.962;2023-05-14T05:45:08;7.70;;;4.40;;
77018;SDS011;66044;53.142;17.962;2023-05-14T05:47:35;9.40;;;4.70;;
77018;SDS011;66044;53.142;17.962;2023-05-14T05:50:02;9.00;;;5.00;;
77018;SDS011;66044;53.142;17.962;2023-05-14T05:52:28;8.50;;;4.10;;
77018;SDS011;66044;53.142;17.962;2023-05-14T05:54:55;8.60;;;4.40;;
77018;SDS011;66044;53.142;17.962;2023-05-14T05:57:21;9.00;;;4.60;;
77018;SDS011;66044;53.142;17.962;2023-05-14T05:59:48;8.60;;;5.00;;
77018;SDS011;66044;53.142;17.962;2023-05-14T06:02:15;8.50;;;4.80;;
77018;SDS011;66044;53.142;17.962;2023-05-14T06:04:41;9.30;;;4.60;;
77018;SDS011;66044;53.142;17.962;2023-05-14T06:07:07;8.90;;;4.60;;
77018;SDS011;66044;53.142;17.962;2023-05-14T06:09:34;8.20;;;4.90;;
77018;SDS011;66044;53.142;17.962;2023-05-14T06:12:00;10.10;;;5.10;;
77018;SDS011;66044;53.142;17.962;2023-05-14T06:14:27;10.70;;;4.90;;
77018;SDS011;66044;53.142;17.962;2023-05-14T06:16:53;8.70;;;4.40;;
77018;SDS011;66044;53.142;17.962;2023-05-14T06:19:20;9.60;;;4.50;;
77018;SDS011;66044;53.142;17.962;2023-05-14T06:21:47;9.50;;;4.80;;
77018;SDS011;66044;53.142;17.962;2023-05-14T06:24:13;9.80;;;4.60;;
77018;SDS011;66044;53.142;17.962;2023-05-14T06:26:40;8.90;;;5.20;;
77018;SDS011;66044;53.142;17.962;2023-05-14T06:29:06;8.10;;;4.70;;
77018;SDS011;66044;53.142;17.962;2023-05-14T06:31:33;8.30;;;4.00;;
77018;SDS011;66044;53.142;17.962;2023-05-14T06:33:59;7.00;;;3.60;;
77018;SDS011;66044;53.142;17.962;2023-05-14T06:36:25;7.90;;;3.50;;
77018;SDS011;66044;53.142;17.962;2023-05-14T06:38:52;9.30;;;4.00;;
77018;SDS011;66044;53.142;17.962;2023-05-14T06:41:18;7.20;;;3.40;;
77018;SDS011;66044;53.142;17.962;2023-05-14T06:43:45;7.80;;;3.00;;
77018;SDS011;66044;53.142;17.962;2023-05-14T06:46:11;9.30;;;3.80;;
77018;SDS011;66044;53.142;17.962;2023-05-14T06:48:40;7.70;;;3.40;;
77018;SDS011;66044;53.142;17.962;2023-05-14T06:51:06;6.50;;;3.10;;
77018;SDS011;66044;53.142;17.962;2023-05-14T06:53:33;6.20;;;3.10;;
77018;SDS011;66044;53.142;17.962;2023-05-14T06:55:59;8.10;;;3.40;;
77018;SDS011;66044;53.142;17.962;2023-05-14T06:58:26;6.60;;;2.90;;
77018;SDS011;66044;53.142;17.962;2023-05-14T07:00:52;7.50;;;3.00;;
77018;SDS011;66044;53.142;17.962;2023-05-14T07:03:19;7.90;;;3.10;;
77018;SDS011;66044;53.142;17.962;2023-05-14T07:05:45;8.70;;;3.40;;
77018;SDS011;66044;53.142;17.962;2023-05-14T07:08:12;8.80;;;3.00;;
77018;SDS011;66044;53.142;17.962;2023-05-14T07:10:38;6.10;;;2.50;;
77018;SDS011;66044;53.142;17.962;2023-05-14T07:13:09;6.90;;;2.40;;
77018;SDS011;66044;53.142;17.962;2023-05-14T07:15:35;6.00;;;2.20;;
77018;SDS011;66044;53.142;17.962;2023-05-14T07:18:02;6.50;;;2.40;;
77018;SDS011;66044;53.142;17.962;2023-05-14T07:20:28;6.40;;;2.20;;
77018;SDS011;66044;53.142;17.962;2023-05-14T07:22:54;5.30;;;2.10;;
77018;SDS011;66044;53.142;17.962;2023-05-14T07:25:21;7.00;;;2.10;;
77018;SDS011;66044;53.142;17.962;2023-05-14T07:27:47;4.90;;;1.90;;
77018;SDS011;66044;53.142;17.962;2023-05-14T07:30:14;5.60;;;2.00;;
77018;SDS011;66044;53.142;17.962;2023-05-14T07:32:40;5.90;;;2.20;;
77018;SDS011;66044;53.142;17.962;2023-05-14T07:35:07;6.20;;;2.10;;
77018;SDS011;66044;53.142;17.962;2023-05-14T07:37:34;6.90;;;2.70;;
77018;SDS011;66044;53.142;17.962;2023-05-14T07:40:00;5.60;;;2.30;;
77018;SDS011;66044;53.142;17.962;2023-05-14T07:42:27;7.60;;;2.30;;
77018;SDS011;66044;53.142;17.962;2023-05-14T07:44:53;8.00;;;2.40;;
77018;SDS011;66044;53.142;17.962;2023-05-14T07:47:20;6.00;;;2.70;;
77018;SDS011;66044;53.142;17.962;2023-05-14T07:49:46;5.60;;;2.20;;
77018;SDS011;66044;53.142;17.962;2023-05-14T07:52:12;7.60;;;2.90;;
77018;SDS011;66044;53.142;17.962;2023-05-14T07:54:39;6.50;;;2.70;;
77018;SDS011;66044;53.142;17.962;2023-05-14T07:57:05;8.80;;;2.50;;
77018;SDS011;66044;53.142;17.962;2023-05-14T07:59:32;7.30;;;2.90;;
77018;SDS011;66044;53.142;17.962;2023-05-14T08:01:59;7.10;;;3.20;;
77018;SDS011;66044;53.142;17.962;2023-05-14T08:04:25;7.00;;;2.70;;
77018;SDS011;66044;53.142;17.962;2023-05-14T08:06:52;7.70;;;3.10;;
77018;SDS011;66044;53.142;17.962;2023-05-14T08:09:18;7.90;;;3.70;;
77018;SDS011;66044;53.142;17.962;2023-05-14T08:11:44;7.50;;;2.80;;
77018;SDS011;66044;53.142;17.962;2023-05-14T08:14:11;7.90;;;2.70;;
77018;SDS011;66044;53.142;17.962;2023-05-14T08:16:37;7.00;;;2.80;;
77018;SDS011;66044;53.142;17.962;2023-05-14T08:19:04;5.90;;;2.30;;
77018;SDS011;66044;53.142;17.962;2023-05-14T08:21:30;7.30;;;2.70;;
77018;SDS011;66044;53.142;17.962;2023-05-14T08:23:57;6.00;;;2.60;;
77018;SDS011;66044;53.142;17.962;2023-05-14T08:26:24;6.40;;;3.20;;
77018;SDS011;66044;53.142;17.962;2023-05-14T08:28:51;7.60;;;2.50;;
77018;SDS011;66044;53.142;17.962;2023-05-14T08:31:19;5.90;;;2.50;;
77018;SDS011;66044;53.142;17.962;2023-05-14T08:33:45;7.80;;;2.30;;
77018;SDS011;66044;53.142;17.962;2023-05-14T08:36:12;6.60;;;2.40;;
77018;SDS011;66044;53.142;17.962;2023-05-14T08:38:39;7.00;;;2.30;;
77018;SDS011;66044;53.142;17.962;2023-05-14T08:41:05;6.30;;;2.20;;
77018;SDS011;66044;53.142;17.962;2023-05-14T08:43:43;6.60;;;1.70;;
77018;SDS011;66044;53.142;17.962;2023-05-14T08:46:21;6.10;;;2.40;;
77018;SDS011;66044;53.142;17.962;2023-05-14T08:48:56;5.80;;;2.30;;
77018;SDS011;66044;53.142;17.962;2023-05-14T08:51:47;6.10;;;2.50;;
77018;SDS011;66044;53.142;17.962;2023-05-14T08:54:15;7.60;;;2.70;;
77018;SDS011;66044;53.142;17.962;2023-05-14T08:56:44;6.40;;;2.60;;
77018;SDS011;66044;53.142;17.962;2023-05-14T08:59:11;7.10;;;2.50;;
77018;SDS011;66044;53.142;17.962;2023-05-14T09:01:40;7.90;;;2.60;;
77018;SDS011;66044;53.142;17.962;2023-05-14T09:04:11;6.10;;;2.20;;
77018;SDS011;66044;53.142;17.962;2023-05-14T09:06:40;6.20;;;2.10;;
77018;SDS011;66044;53.142;17.962;2023-05-14T09:09:08;6.70;;;2.40;;
77018;SDS011;66044;53.142;17.962;2023-05-14T09:11:41;7.40;;;2.60;;
77018;SDS011;66044;53.142;17.962;2023-05-14T09:14:11;6.60;;;2.30;;
77018;SDS011;66044;53.142;17.962;2023-05-14T09:16:38;5.80;;;2.40;;
77018;SDS011;66044;53.142;17.962;2023-05-14T09:19:05;5.80;;;2.50;;
77018;SDS011;66044;53.142;17.962;2023-05-14T09:21:32;6.40;;;2.30;;
77018;SDS011;66044;53.142;17.962;2023-05-14T09:23:59;5.80;;;2.40;;
77018;SDS011;66044;53.142;17.962;2023-05-14T09:26:26;5.60;;;2.20;;
77018;SDS011;66044;53.142;17.962;2023-05-14T09:28:57;7.40;;;2.60;;
77018;SDS011;66044;53.142;17.962;2023-05-14T09:31:30;7.30;;;2.50;;
77018;SDS011;66044;53.142;17.962;2023-05-14T09:33:58;6.00;;;2.20;;
77018;SDS011;66044;53.142;17.962;2023-05-14T09:36:25;6.30;;;2.70;;
77018;SDS011;66044;53.142;17.962;2023-05-14T09:38:55;5.40;;;2.00;;
77018;SDS011;66044;53.142;17.962;2023-05-14T09:41:22;7.00;;;2.00;;
77018;SDS011;66044;53.142;17.962;2023-05-14T09:43:51;7.90;;;2.40;;
77018;SDS011;66044;53.142;17.962;2023-05-14T09:46:18;6.10;;;2.50;;
77018;SDS011;66044;53.142;17.962;2023-05-14T09:48:44;6.20;;;2.30;;
77018;SDS011;66044;53.142;17.962;2023-05-14T09:51:11;7.10;;;2.30;;
77018;SDS011;66044;53.142;17.962;2023-05-14T09:53:38;9.00;;;2.80;;
77018;SDS011;66044;53.142;17.962;2023-05-14T09:56:06;8.00;;;2.60;;
77018;SDS011;66044;53.142;17.962;2023-05-14T09:58:32;7.60;;;2.30;;
77018;SDS011;66044;53.142;17.962;2023-05-14T10:00:59;7.80;;;2.50;;
77018;SDS011;66044;53.142;17.962;2023-05-14T10:03:28;6.70;;;2.30;;
77018;SDS011;66044;53.142;17.962;2023-05-14T10:05:57;9.00;;;2.10;;
77018;SDS011;66044;53.142;17.962;2023-05-14T10:08:35;6.20;;;2.10;;
77018;SDS011;66044;53.142;17.962;2023-05-14T10:11:07;6.50;;;2.10;;
77018;SDS011;66044;53.142;17.962;2023-05-14T10:13:40;6.50;;;2.00;;
77018;SDS011;66044;53.142;17.962;2023-05-14T10:16:12;6.70;;;2.20;;
77018;SDS011;66044;53.142;17.962;2023-05-14T10:18:51;5.00;;;1.70;;
77018;SDS011;66044;53.142;17.962;2023-05-14T10:21:21;5.70;;;2.10;;
77018;SDS011;66044;53.142;17.962;2023-05-14T10:23:49;6.80;;;2.30;;
77018;SDS011;66044;53.142;17.962;2023-05-14T10:26:16;5.40;;;1.90;;
77018;SDS011;66044;53.142;17.962;2023-05-14T10:28:43;5.80;;;1.90;;
77018;SDS011;66044;53.142;17.962;2023-05-14T10:31:10;5.50;;;2.10;;
77018;SDS011;66044;53.142;17.962;2023-05-14T10:33:47;6.90;;;1.60;;
77018;SDS011;66044;53.142;17.962;2023-05-14T10:36:18;6.70;;;2.40;;
77018;SDS011;66044;53.142;17.962;2023-05-14T10:38:45;6.00;;;2.10;;
77018;SDS011;66044;53.142;17.962;2023-05-14T10:41:12;6.40;;;2.30;;
77018;SDS011;66044;53.142;17.962;2023-05-14T10:43:46;9.40;;;2.60;;
77018;SDS011;66044;53.142;17.962;2023-05-14T10:46:13;9.20;;;2.50;;
77018;SDS011;66044;53.142;17.962;2023-05-14T10:48:40;7.90;;;2.50;;
77018;SDS011;66044;53.142;17.962;2023-05-14T10:51:08;7.00;;;2.20;;
77018;SDS011;66044;53.142;17.962;2023-05-14T10:53:39;6.40;;;2.00;;
77018;SDS011;66044;53.142;17.962;2023-05-14T10:56:11;8.20;;;2.10;;
77018;SDS011;66044;53.142;17.962;2023-05-14T10:58:43;8.00;;;1.90;;
77018;SDS011;66044;53.142;17.962;2023-05-14T11:01:11;5.40;;;1.70;;
77018;SDS011;66044;53.142;17.962;2023-05-14T11:03:42;6.10;;;1.90;;
77018;SDS011;66044;53.142;17.962;2023-05-14T11:06:11;6.60;;;2.30;;
77018;SDS011;66044;53.142;17.962;2023-05-14T11:08:40;5.10;;;1.70;;
77018;SDS011;66044;53.142;17.962;2023-05-14T11:11:07;6.20;;;2.10;;
77018;SDS011;66044;53.142;17.962;2023-05-14T11:13:34;6.90;;;2.30;;
77018;SDS011;66044;53.142;17.962;2023-05-14T11:16:01;5.90;;;1.90;;
77018;SDS011;66044;53.142;17.962;2023-05-14T11:18:28;6.50;;;1.90;;
77018;SDS011;66044;53.142;17.962;2023-05-14T11:20:59;6.80;;;2.30;;
77018;SDS011;66044;53.142;17.962;2023-05-14T11:23:26;6.30;;;1.70;;
77018;SDS011;66044;53.142;17.962;2023-05-14T11:25:54;7.20;;;2.00;;
77018;SDS011;66044;53.142;17.962;2023-05-14T11:28:22;6.90;;;1.80;;
77018;SDS011;66044;53.142;17.962;2023-05-14T11:30:49;5.60;;;1.80;;
77018;SDS011;66044;53.142;17.962;2023-05-14T11:33:16;7.60;;;2.90;;
77018;SDS011;66044;53.142;17.962;2023-05-14T11:35:44;6.00;;;1.70;;
77018;SDS011;66044;53.142;17.962;2023-05-14T11:38:15;6.80;;;1.90;;
77018;SDS011;66044;53.142;17.962;2023-05-14T11:40:52;6.40;;;2.30;;
77018;SDS011;66044;53.142;17.962;2023-05-14T11:43:20;6.30;;;2.00;;
77018;SDS011;66044;53.142;17.962;2023-05-14T11:45:50;5.30;;;1.90;;
77018;SDS011;66044;53.142;17.962;2023-05-14T11:48:17;5.60;;;2.10;;
77018;SDS011;66044;53.142;17.962;2023-05-14T11:50:48;8.50;;;2.20;;
77018;SDS011;66044;53.142;17.962;2023-05-14T11:53:21;8.10;;;2.30;;
77018;SDS011;66044;53.142;17.962;2023-05-14T11:55:51;7.60;;;2.10;;
77018;SDS011;66044;53.142;17.962;2023-05-14T11:58:19;7.10;;;2.40;;
77018;SDS011;66044;53.142;17.962;2023-05-14T12:00:50;9.70;;;2.80;;
77018;SDS011;66044;53.142;17.962;2023-05-14T12:03:18;25.20;;;4.50;;
77018;SDS011;66044;53.142;17.962;2023-05-14T12:05:55;6.70;;;2.40;;
77018;SDS011;66044;53.142;17.962;2023-05-14T12:08:24;12.10;;;2.90;;
77018;SDS011;66044;53.142;17.962;2023-05-14T12:10:52;7.40;;;3.00;;
77018;SDS011;66044;53.142;17.962;2023-05-14T12:13:19;12.80;;;2.80;;
77018;SDS011;66044;53.142;17.962;2023-05-14T12:15:47;7.60;;;2.40;;
77018;SDS011;66044;53.142;17.962;2023-05-14T12:18:19;16.50;;;3.50;;
77018;SDS011;66044;53.142;17.962;2023-05-14T12:20:46;7.30;;;2.10;;
77018;SDS011;66044;53.142;17.962;2023-05-14T12:23:13;8.30;;;2.30;;
77018;SDS011;66044;53.142;17.962;2023-05-14T12:25:48;12.90;;;3.00;;
77018;SDS011;66044;53.142;17.962;2023-05-14T12:28:16;5.50;;;1.80;;
77018;SDS011;66044;53.142;17.962;2023-05-14T12:30:43;8.30;;;2.10;;
77018;SDS011;66044;53.142;17.962;2023-05-14T12:33:10;7.00;;;2.20;;
77018;SDS011;66044;53.142;17.962;2023-05-14T12:35:37;6.80;;;2.00;;
77018;SDS011;66044;53.142;17.962;2023-05-14T12:38:03;6.30;;;2.20;;
77018;SDS011;66044;53.142;17.962;2023-05-14T12:40:30;6.30;;;1.80;;
77018;SDS011;66044;53.142;17.962;2023-05-14T12:42:56;6.80;;;2.20;;
77018;SDS011;66044;53.142;17.962;2023-05-14T12:45:23;6.40;;;2.00;;
77018;SDS011;66044;53.142;17.962;2023-05-14T12:47:49;5.40;;;1.90;;
77018;SDS011;66044;53.142;17.962;2023-05-14T12:50:16;5.70;;;2.10;;
77018;SDS011;66044;53.142;17.962;2023-05-14T12:52:42;6.90;;;2.00;;
77018;SDS011;66044;53.142;17.962;2023-05-14T12:55:09;6.60;;;2.30;;
77018;SDS011;66044;53.142;17.962;2023-05-14T12:57:36;6.60;;;2.10;;
77018;SDS011;66044;53.142;17.962;2023-05-14T13:00:03;5.50;;;2.20;;
77018;SDS011;66044;53.142;17.962;2023-05-14T13:02:33;6.60;;;1.90;;
77018;SDS011;66044;53.142;17.962;2023-05-14T13:05:00;5.90;;;2.00;;
77018;SDS011;66044;53.142;17.962;2023-05-14T13:07:29;7.60;;;2.30;;
77018;SDS011;66044;53.142;17.962;2023-05-14T13:09:56;8.10;;;2.10;;
77018;SDS011;66044;53.142;17.962;2023-05-14T13:12:26;6.10;;;2.30;;
77018;SDS011;66044;53.142;17.962;2023-05-14T13:14:52;5.70;;;2.00;;
77018;SDS011;66044;53.142;17.962;2023-05-14T13:17:19;8.20;;;2.20;;
77018;SDS011;66044;53.142;17.962;2023-05-14T13:19:45;5.50;;;2.00;;
77018;SDS011;66044;53.142;17.962;2023-05-14T13:22:11;7.30;;;2.20;;
77018;SDS011;66044;53.142;17.962;2023-05-14T13:24:39;7.00;;;2.20;;
77018;SDS011;66044;53.142;17.962;2023-05-14T13:27:05;6.30;;;2.10;;
77018;SDS011;66044;53.142;17.962;2023-05-14T13:29:32;6.30;;;2.10;;
77018;SDS011;66044;53.142;17.962;2023-05-14T13:31:58;6.30;;;1.90;;
77018;SDS011;66044;53.142;17.962;2023-05-14T13:34:25;6.10;;;2.20;;
77018;SDS011;66044;53.142;17.962;2023-05-14T13:36:51;5.20;;;1.80;;
77018;SDS011;66044;53.142;17.962;2023-05-14T13:39:17;6.40;;;2.30;;
77018;SDS011;66044;53.142;17.962;2023-05-14T13:41:47;5.40;;;1.80;;
77018;SDS011;66044;53.142;17.962;2023-05-14T13:44:15;7.80;;;2.10;;
77018;SDS011;66044;53.142;17.962;2023-05-14T13:46:42;8.00;;;1.90;;
77018;SDS011;66044;53.142;17.962;2023-05-14T13:49:08;6.40;;;2.40;;
77018;SDS011;66044;53.142;17.962;2023-05-14T13:51:35;7.00;;;2.00;;
77018;SDS011;66044;53.142;17.962;2023-05-14T13:54:01;5.30;;;1.90;;
77018;SDS011;66044;53.142;17.962;2023-05-14T13:56:28;5.80;;;1.80;;
77018;SDS011;66044;53.142;17.962;2023-05-14T13:58:55;5.70;;;1.90;;
77018;SDS011;66044;53.142;17.962;2023-05-14T14:01:21;6.50;;;2.10;;
77018;SDS011;66044;53.142;17.962;2023-05-14T14:03:48;6.20;;;2.20;;
77018;SDS011;66044;53.142;17.962;2023-05-14T14:06:14;7.30;;;2.20;;
77018;SDS011;66044;53.142;17.962;2023-05-14T14:08:41;7.30;;;2.10;;
77018;SDS011;66044;53.142;17.962;2023-05-14T14:11:07;4.80;;;1.90;;
77018;SDS011;66044;53.142;17.962;2023-05-14T14:13:34;8.30;;;2.20;;
77018;SDS011;66044;53.142;17.962;2023-05-14T14:16:02;7.00;;;2.20;;
77018;SDS011;66044;53.142;17.962;2023-05-14T14:18:29;6.20;;;2.10;;
77018;SDS011;66044;53.142;17.962;2023-05-14T14:20:55;5.40;;;2.00;;
77018;SDS011;66044;53.142;17.962;2023-05-14T14:23:22;5.70;;;2.00;;
77018;SDS011;66044;53.142;17.962;2023-05-14T14:25:49;6.60;;;2.00;;
77018;SDS011;66044;53.142;17.962;2023-05-14T14:28:15;5.60;;;2.00;;
77018;SDS011;66044;53.142;17.962;2023-05-14T14:30:41;6.90;;;1.90;;
77018;SDS011;66044;53.142;17.962;2023-05-14T14:33:08;6.20;;;2.00;;
77018;SDS011;66044;53.142;17.962;2023-05-14T14:35:36;8.90;;;2.10;;